createdAt,value
2022-10-06T00:02:19.943Z,93.74
2022-10-06T00:05:22.948Z,99.19
2022-10-06T00:08:25.557Z,97.64
2022-10-06T00:11:28.220Z,97.36
2022-10-06T00:14:31.432Z,99.81
2022-10-06T00:17:35.163Z,100.00
2022-10-06T00:20:37.513Z,100.00
2022-10-06T00:23:40.759Z,100.00
2022-10-06T00:26:43.061Z,100.00
2022-10-06T00:29:45.608Z,100.00
2022-10-06T00:33:00.643Z,100.00
2022-10-06T00:36:03.957Z,98.52
2022-10-06T00:39:06.281Z,99.25
2022-10-06T00:42:40.331Z,98.37
2022-10-06T00:45:49.176Z,99.17
2022-10-06T00:49:03.497Z,99.78
2022-10-06T00:52:12.444Z,98.55
2022-10-06T00:55:16.317Z,98.42
2022-10-06T00:58:19.442Z,99.56
2022-10-06T01:01:22.813Z,98.28
2022-10-06T01:04:26.437Z,97.87
2022-10-06T01:07:30.654Z,98.06
2022-10-06T01:10:33.557Z,98.76
2022-10-06T01:13:36.130Z,97.69
2022-10-06T01:16:42.776Z,97.88
2022-10-06T01:19:54.890Z,98.37
2022-10-06T01:23:05.112Z,100.00
2022-10-06T01:26:10.888Z,100.00
2022-10-06T01:29:13.632Z,100.00
2022-10-06T01:32:16.612Z,99.57
2022-10-06T01:35:19.252Z,98.79
2022-10-06T01:38:26.107Z,98.09
2022-10-06T01:41:30.740Z,99.96
2022-10-06T01:44:33.776Z,100.00
2022-10-06T01:47:36.259Z,99.71
2022-10-06T01:50:41.485Z,100.00
2022-10-06T01:53:44.201Z,100.00
2022-10-06T01:56:46.760Z,100.00
2022-10-06T01:59:53.942Z,100.00
2022-10-06T02:02:58.486Z,100.00
2022-10-06T02:06:02.604Z,99.21
2022-10-06T02:09:05.742Z,97.97
2022-10-06T02:12:09.300Z,96.23
2022-10-06T02:15:16.674Z,97.24
2022-10-06T02:18:19.276Z,99.19
2022-10-06T02:21:24.421Z,99.86
2022-10-06T02:24:26.795Z,99.43
2022-10-06T02:27:29.626Z,99.96
2022-10-06T02:30:32.583Z,100.00
2022-10-06T02:33:38.785Z,100.00
2022-10-06T02:36:43.182Z,100.00
2022-10-06T02:39:47.160Z,100.00
2022-10-06T02:42:49.550Z,100.00
2022-10-06T02:46:00.029Z,100.00
2022-10-06T02:49:03.065Z,100.00
2022-10-06T02:52:05.979Z,100.00
2022-10-06T02:55:09.937Z,99.76
2022-10-06T02:58:13.092Z,99.42
2022-10-06T03:01:21.971Z,100.00
2022-10-06T03:04:27.409Z,100.00
2022-10-06T03:07:29.636Z,100.00
2022-10-06T03:10:33.541Z,100.00
2022-10-06T03:13:35.826Z,100.00
2022-10-06T03:16:42.952Z,100.00
2022-10-06T03:19:45.858Z,100.00
2022-10-06T03:22:49.369Z,100.00
2022-10-06T03:25:56.584Z,100.00
2022-10-06T03:29:00.471Z,100.00
2022-10-06T03:32:03.136Z,100.00
2022-10-06T03:35:06.675Z,100.00
2022-10-06T03:38:09.426Z,100.00
2022-10-06T03:41:14.734Z,99.00
2022-10-06T03:44:17.478Z,100.00
2022-10-06T03:47:20.426Z,100.00
2022-10-06T03:50:22.688Z,100.00
2022-10-06T03:53:28.297Z,100.00
2022-10-06T03:56:34.075Z,100.00
2022-10-06T03:59:38.011Z,100.00
2022-10-06T04:02:40.410Z,100.00
2022-10-06T04:05:53.050Z,100.00
2022-10-06T04:08:56.322Z,100.00
2022-10-06T04:11:58.880Z,100.00
2022-10-06T04:15:01.566Z,100.00
2022-10-06T04:18:04.198Z,100.00
2022-10-06T04:21:06.685Z,100.00
2022-10-06T04:24:11.166Z,100.00
2022-10-06T04:27:34.763Z,100.00
2022-10-06T04:30:37.752Z,100.00
2022-10-06T04:33:40.859Z,100.00
2022-10-06T04:36:43.522Z,100.00
2022-10-06T04:39:46.562Z,100.00
2022-10-06T04:42:49.368Z,100.00
2022-10-06T04:45:59.753Z,100.00
2022-10-06T04:49:04.082Z,100.00
2022-10-06T04:52:06.726Z,100.00
2022-10-06T04:55:11.214Z,100.00
2022-10-06T04:58:13.641Z,100.00
2022-10-06T05:01:30.136Z,100.00
2022-10-06T05:04:33.240Z,100.00
2022-10-06T05:07:36.545Z,100.00
2022-10-06T05:10:39.201Z,100.00
2022-10-06T05:13:42.453Z,100.00
2022-10-06T05:16:47.959Z,100.00
2022-10-06T05:19:51.448Z,100.00
2022-10-06T05:22:54.155Z,100.00
2022-10-06T05:25:58.767Z,100.00
2022-10-06T05:29:02.830Z,100.00
2022-10-06T05:32:05.728Z,99.40
2022-10-06T05:35:10.866Z,97.53
2022-10-06T05:38:13.293Z,98.62
2022-10-06T05:41:17.856Z,97.52
2022-10-06T05:44:20.342Z,96.46
2022-10-06T05:47:23.297Z,94.46
2022-10-06T05:50:25.963Z,93.90
2022-10-06T05:53:30.530Z,92.13
2022-10-06T05:56:35.511Z,92.11
2022-10-06T05:59:38.040Z,91.32
2022-10-06T06:02:40.902Z,91.54
2022-10-06T06:05:43.985Z,89.97
2022-10-06T06:08:49.328Z,89.10
2022-10-06T06:11:56.687Z,91.19
2022-10-06T06:15:19.567Z,89.27
2022-10-06T06:18:22.262Z,89.71
2022-10-06T06:21:26.175Z,89.22
2022-10-06T06:24:28.684Z,89.52
2022-10-06T06:27:30.825Z,91.19
2022-10-06T06:30:33.779Z,90.11
2022-10-06T06:33:37.751Z,89.40
2022-10-06T06:36:42.074Z,89.80
2022-10-06T06:39:44.385Z,89.75
2022-10-06T06:42:50.358Z,90.34
2022-10-06T06:46:04.350Z,90.67
2022-10-06T06:49:07.837Z,90.06
2022-10-06T06:52:10.745Z,91.57
2022-10-06T06:55:14.203Z,90.76
2022-10-06T06:58:17.933Z,88.77
2022-10-06T07:01:22.712Z,85.68
2022-10-06T07:04:24.988Z,83.11
2022-10-06T07:07:27.821Z,81.66
2022-10-06T07:10:31.555Z,80.72
2022-10-06T07:13:35.093Z,79.62
2022-10-06T07:16:55.547Z,79.06
2022-10-06T07:20:16.520Z,79.66
2022-10-06T07:23:39.669Z,80.94
2022-10-06T07:26:43.103Z,81.98
2022-10-06T07:29:47.127Z,80.54
2022-10-06T07:32:51.481Z,79.54
2022-10-06T07:35:55.115Z,80.20
2022-10-06T07:38:57.626Z,78.91
2022-10-06T07:41:59.875Z,77.75
2022-10-06T07:45:21.015Z,75.00
2022-10-06T07:48:23.501Z,75.66
2022-10-06T07:51:27.291Z,75.43
2022-10-06T07:54:30.485Z,74.24
2022-10-06T07:57:34.820Z,76.26
2022-10-06T08:00:37.134Z,73.75
2022-10-06T08:03:41.677Z,74.89
2022-10-06T08:06:44.936Z,74.17
2022-10-06T08:09:48.717Z,71.83
2022-10-06T08:12:52.232Z,71.45
2022-10-06T08:15:56.493Z,70.82
2022-10-06T08:18:59.435Z,70.06
2022-10-06T08:22:04.803Z,69.62
2022-10-06T08:25:10.061Z,69.76
2022-10-06T08:28:13.223Z,70.28
2022-10-06T08:31:18.119Z,68.97
2022-10-06T08:34:21.792Z,69.63
2022-10-06T08:37:26.754Z,66.42
2022-10-06T08:40:29.463Z,66.04
2022-10-06T08:43:32.651Z,67.30
2022-10-06T08:46:40.335Z,65.70
2022-10-06T08:49:45.241Z,66.30
2022-10-06T08:53:16.244Z,64.89
2022-10-06T08:56:27.363Z,66.25
2022-10-06T08:59:35.979Z,64.65
2022-10-06T09:02:43.291Z,63.41
2022-10-06T09:05:46.663Z,62.88
2022-10-06T09:09:02.865Z,62.60
2022-10-06T09:12:27.545Z,63.47
2022-10-06T09:15:35.877Z,62.22
2022-10-06T09:19:08.230Z,62.21
2022-10-06T09:22:20.423Z,61.96
2022-10-06T09:25:29.813Z,62.05
2022-10-06T09:28:33.629Z,61.59
2022-10-06T09:31:39.173Z,60.43
2022-10-06T09:34:52.547Z,60.44
2022-10-06T09:38:08.327Z,59.79
2022-10-06T09:41:13.499Z,58.92
2022-10-06T09:44:27.460Z,58.04
2022-10-06T09:47:33.975Z,58.51
2022-10-06T09:50:37.774Z,58.00
2022-10-06T09:53:41.308Z,58.71
2022-10-06T09:56:47.325Z,57.97
2022-10-06T09:59:49.516Z,60.10
2022-10-06T10:03:04.651Z,58.11
2022-10-06T10:06:09.106Z,58.00
2022-10-06T10:09:20.687Z,58.02
2022-10-06T10:12:29.803Z,56.91
2022-10-06T10:15:56.865Z,55.42
2022-10-06T10:19:02.922Z,56.70
2022-10-06T10:22:05.103Z,56.82
2022-10-06T10:25:34.251Z,57.31
2022-10-06T10:29:00.911Z,57.01
2022-10-06T10:32:19.339Z,57.68
2022-10-06T10:35:31.666Z,58.61
2022-10-06T10:38:41.247Z,57.10
2022-10-06T10:41:52.071Z,56.88
2022-10-06T10:45:02.756Z,57.63
2022-10-06T10:48:20.739Z,59.63
2022-10-06T11:14:16.102Z,59.05
2022-10-06T11:17:40.045Z,59.84
2022-10-06T11:20:55.900Z,59.75
2022-10-06T11:24:24.237Z,59.92
2022-10-06T11:27:59.441Z,60.13
2022-10-06T11:31:42.559Z,60.74
2022-10-06T11:34:49.738Z,62.58
2022-10-06T11:38:10.363Z,62.02
2022-10-06T11:41:34.456Z,61.51
2022-10-06T11:44:50.441Z,62.38
2022-10-06T11:48:23.164Z,61.96
2022-10-06T11:51:25.389Z,58.28
2022-10-06T11:54:49.940Z,57.26
2022-10-06T11:58:42.073Z,57.21
2022-10-06T12:01:37.690Z,55.96
2022-10-06T12:04:40.316Z,55.40
2022-10-06T12:07:55.009Z,54.78
2022-10-06T12:10:59.997Z,53.31
2022-10-06T12:17:39.469Z,56.95
2022-10-06T12:21:24.265Z,55.51
2022-10-06T12:24:37.137Z,55.61
2022-10-06T12:27:52.299Z,57.65
2022-10-06T12:31:37.536Z,56.67
2022-10-06T12:34:39.765Z,54.77
2022-10-06T12:37:53.016Z,53.56
2022-10-06T12:40:56.712Z,55.13
2022-10-06T12:44:00.828Z,55.49
2022-10-06T12:47:10.734Z,56.53
2022-10-06T12:50:20.602Z,56.44
2022-10-06T12:53:39.036Z,55.52
2022-10-06T12:56:42.999Z,55.50
2022-10-06T12:59:45.164Z,56.21
2022-10-06T13:02:47.735Z,57.29
2022-10-06T13:05:53.071Z,56.14
2022-10-06T13:09:12.820Z,56.83
2022-10-06T13:12:37.056Z,55.31
2022-10-06T13:15:43.315Z,55.62
2022-10-06T13:18:45.960Z,56.37
2022-10-06T13:21:48.579Z,55.89
2022-10-06T13:24:50.923Z,56.89
2022-10-06T13:27:53.334Z,56.42
2022-10-06T13:34:11.698Z,56.01
2022-10-06T13:37:15.439Z,57.44
2022-10-06T13:40:44.004Z,56.62
2022-10-06T13:43:51.450Z,59.29
2022-10-06T13:46:58.374Z,57.59
2022-10-06T13:50:08.263Z,58.44
2022-10-06T13:53:31.003Z,60.11
2022-10-06T13:56:38.832Z,59.19
2022-10-06T13:59:41.330Z,59.26
2022-10-06T14:03:06.435Z,62.58
2022-10-06T14:06:19.137Z,60.14
2022-10-06T14:09:31.911Z,59.91
2022-10-06T14:12:35.336Z,60.99
2022-10-06T14:15:48.178Z,59.51
2022-10-06T14:19:00.054Z,59.66
2022-10-06T14:22:04.362Z,59.78
2022-10-06T14:25:18.626Z,61.54
2022-10-06T14:28:21.008Z,63.99
2022-10-06T14:31:27.150Z,62.50
2022-10-06T14:34:29.450Z,63.44
2022-10-06T14:37:33.561Z,65.85
2022-10-06T14:40:35.798Z,67.84
2022-10-06T14:43:40.784Z,68.84
2022-10-06T14:46:48.042Z,67.85
2022-10-06T14:49:51.334Z,66.83
2022-10-06T14:52:53.510Z,69.47
2022-10-06T14:56:04.405Z,72.34
2022-10-06T14:59:09.449Z,73.52
2022-10-06T15:02:12.117Z,75.44
2022-10-06T15:05:14.695Z,77.88
2022-10-06T15:08:18.287Z,78.22
2022-10-06T15:11:22.038Z,77.70
2022-10-06T15:14:24.603Z,78.35
2022-10-06T15:17:26.786Z,79.01
2022-10-06T15:20:29.568Z,79.16
2022-10-06T15:23:31.867Z,80.44
2022-10-06T15:26:53.166Z,80.83
2022-10-06T15:29:57.542Z,76.26
2022-10-06T15:33:04.257Z,78.69
2022-10-06T15:36:18.916Z,76.78
2022-10-06T15:39:24.741Z,76.35
2022-10-06T15:42:27.382Z,75.55
2022-10-06T15:45:29.905Z,73.57
2022-10-06T15:48:32.068Z,74.25
2022-10-06T15:51:38.377Z,72.53
2022-10-06T15:54:41.701Z,74.34
2022-10-06T15:57:44.227Z,75.12
2022-10-06T16:00:46.412Z,76.28
2022-10-06T16:03:48.957Z,75.97
2022-10-06T16:06:57.674Z,76.19
2022-10-06T16:10:00.307Z,78.43
2022-10-06T16:13:02.499Z,79.10
2022-10-06T16:16:05.212Z,79.55
2022-10-06T16:19:07.626Z,78.99
2022-10-06T16:22:13.153Z,80.41
2022-10-06T16:25:15.433Z,80.95
2022-10-06T16:28:18.003Z,81.51
2022-10-06T16:31:21.613Z,81.57
2022-10-06T16:34:25.433Z,81.87
2022-10-06T16:37:27.624Z,81.68
2022-10-06T16:40:30.124Z,81.87
2022-10-06T16:43:36.617Z,82.58
2022-10-06T16:46:39.628Z,82.79
2022-10-06T16:49:41.857Z,83.89
2022-10-06T16:52:44.324Z,85.33
2022-10-06T16:55:46.496Z,83.76
2022-10-06T16:58:53.934Z,84.48
2022-10-06T17:01:56.179Z,83.59
2022-10-06T17:04:58.736Z,82.92
2022-10-06T17:08:00.905Z,83.84
2022-10-06T17:11:09.377Z,83.69
2022-10-06T17:14:12.052Z,84.34
2022-10-06T17:17:14.509Z,84.22
2022-10-06T17:20:16.921Z,85.07
2022-10-06T17:23:19.411Z,85.99
2022-10-06T17:26:24.030Z,86.54
2022-10-06T17:29:27.040Z,87.49
2022-10-06T17:32:29.250Z,87.42
2022-10-06T17:35:31.769Z,88.11
2022-10-06T17:38:36.072Z,88.01
2022-10-06T17:41:40.933Z,87.74
2022-10-06T17:44:43.102Z,87.92
2022-10-06T17:47:46.936Z,88.60
2022-10-06T17:51:00.300Z,88.78
2022-10-06T17:54:05.406Z,88.79
2022-10-06T17:57:07.630Z,89.54
2022-10-06T18:00:10.806Z,89.88
2022-10-06T18:03:13.917Z,89.54
2022-10-06T18:06:17.693Z,89.48
2022-10-06T18:09:20.599Z,90.03
2022-10-06T18:12:23.062Z,89.68
2022-10-06T18:15:25.242Z,90.24
2022-10-06T18:18:27.777Z,91.25
2022-10-06T18:21:35.279Z,91.49
2022-10-06T18:24:38.697Z,92.51
2022-10-06T18:27:41.082Z,93.34
2022-10-06T18:30:49.844Z,93.80
2022-10-06T18:37:14.862Z,93.48
2022-10-06T18:40:17.119Z,93.53
2022-10-06T18:43:19.633Z,95.08
2022-10-06T18:46:40.838Z,94.76
2022-10-06T18:49:44.173Z,93.77
2022-10-06T18:52:46.344Z,94.58
2022-10-06T18:55:51.677Z,95.38
2022-10-06T18:58:53.831Z,97.93
2022-10-06T19:01:57.859Z,100.00
2022-10-06T19:05:00.148Z,99.62
2022-10-06T19:08:02.616Z,99.15
2022-10-06T19:11:25.482Z,98.71
2022-10-06T19:14:32.553Z,98.76
2022-10-06T19:17:35.791Z,98.37
2022-10-06T19:20:38.258Z,98.81
2022-10-06T19:23:40.833Z,100.00
2022-10-06T19:26:46.053Z,100.00
2022-10-06T19:29:54.198Z,100.00
2022-10-06T19:32:57.647Z,100.00
2022-10-06T19:36:00.450Z,100.00
2022-10-06T19:39:10.450Z,100.00
2022-10-06T19:42:33.810Z,100.00
2022-10-06T19:45:36.361Z,100.00
2022-10-06T19:48:38.678Z,100.00
2022-10-06T19:51:41.279Z,100.00
2022-10-06T19:54:43.524Z,100.00
2022-10-06T19:57:46.219Z,100.00
2022-10-06T20:00:48.788Z,100.00
2022-10-06T20:03:51.807Z,100.00
2022-10-06T20:06:54.052Z,100.00
2022-10-06T20:09:56.556Z,100.00
2022-10-06T20:12:58.725Z,100.00
2022-10-06T20:16:02.604Z,100.00
2022-10-06T20:19:05.481Z,100.00
2022-10-06T20:22:08.005Z,100.00
2022-10-06T20:25:10.391Z,100.00
2022-10-06T20:28:13.308Z,100.00
2022-10-06T20:31:30.232Z,100.00
2022-10-06T20:34:33.234Z,100.00
2022-10-06T20:37:38.269Z,100.00
2022-10-06T20:40:48.957Z,100.00
2022-10-06T20:43:53.908Z,100.00
2022-10-06T20:46:56.539Z,100.00
2022-10-06T20:49:58.659Z,100.00
2022-10-06T20:53:01.230Z,100.00
2022-10-06T20:56:05.695Z,100.00
2022-10-06T20:59:11.776Z,100.00
2022-10-06T21:02:13.971Z,100.00
2022-10-06T21:05:16.560Z,100.00
2022-10-06T21:08:18.811Z,100.00
2022-10-06T21:11:23.614Z,100.00
2022-10-06T21:14:25.884Z,100.00
2022-10-06T21:17:28.381Z,100.00
2022-10-06T21:20:30.656Z,100.00
2022-10-06T21:23:42.549Z,100.00
2022-10-06T21:26:44.709Z,100.00
2022-10-06T21:29:47.701Z,100.00
2022-10-06T21:32:49.831Z,100.00
2022-10-06T21:36:03.557Z,100.00
2022-10-06T21:39:06.789Z,100.00
2022-10-06T21:42:09.364Z,100.00
2022-10-06T21:45:11.488Z,100.00
2022-10-06T21:48:14.234Z,100.00
2022-10-06T21:51:16.399Z,100.00
2022-10-06T21:54:20.547Z,100.00
2022-10-06T21:57:22.719Z,100.00
2022-10-06T22:00:25.175Z,100.00
2022-10-06T22:03:27.621Z,100.00
2022-10-06T22:06:32.002Z,100.00
2022-10-06T22:09:34.462Z,100.00
2022-10-06T22:12:36.653Z,100.00
2022-10-06T22:15:39.132Z,100.00
2022-10-06T22:18:41.962Z,100.00
2022-10-06T22:21:47.537Z,100.00
2022-10-06T22:24:49.711Z,100.00
2022-10-06T22:27:52.191Z,100.00
2022-10-06T22:31:09.048Z,100.00
2022-10-06T22:34:14.277Z,100.00
2022-10-06T22:37:16.627Z,100.00
2022-10-06T22:40:19.043Z,100.00
2022-10-06T22:43:21.190Z,100.00
2022-10-06T22:46:25.189Z,100.00
2022-10-06T22:49:27.341Z,100.00
2022-10-06T22:52:29.880Z,100.00
2022-10-06T22:55:32.357Z,100.00
2022-10-06T22:58:35.520Z,100.00
2022-10-06T23:01:37.643Z,100.00
2022-10-06T23:04:40.228Z,100.00
2022-10-06T23:07:42.729Z,100.00
2022-10-06T23:10:45.449Z,100.00
2022-10-06T23:13:48.535Z,100.00
2022-10-06T23:16:51.097Z,100.00
2022-10-06T23:19:53.221Z,100.00
2022-10-06T23:22:56.024Z,100.00
2022-10-06T23:26:04.242Z,100.00
2022-10-06T23:29:07.454Z,100.00
2022-10-06T23:32:09.643Z,100.00
2022-10-06T23:35:12.344Z,100.00
2022-10-06T23:38:14.467Z,100.00
2022-10-06T23:41:17.003Z,100.00
2022-10-06T23:44:19.138Z,100.00
2022-10-06T23:47:21.573Z,100.00
2022-10-06T23:50:23.813Z,100.00
2022-10-06T23:53:27.275Z,100.00
2022-10-06T23:56:29.401Z,100.00
2022-10-06T23:59:31.842Z,100.00
